Atlanta, GA (30334)

8:34 PM EDT on July 29, 2016 (GMT -0400)
Mercedes Benz Stadium | | Change Station

Elev 1047 ft 33.75 °N, 84.40 °W | Updated 8 minutes ago

Mostly Cloudy
Mostly Cloudy
83.8 °F
Feels Like 89 °F
N
1.7
Wind Variable Wind from NNE

Today
High -- | Low -- °F
--% Chance of Precip.
Yesterday
High -- | Low -- °F
Precip. -- in
Pressure 29.96 in
Visibility 10.0 miles
Clouds Few 4500 ft
Scattered Clouds 10000 ft
Scattered Clouds 15000 ft
Mostly Cloudy 25000 ft
Heat Index 89 °F
Dew Point 71 °F
Humidity 66%
Rainfall 0.00 in
Snow Depth Not available.
6:47 AM 8:39 PM
Waning Crescent, 18% visible
METAR KATL 292352Z 29011KT 10SM FEW045 SCT100 SCT150 BKN250 30/20 A2999 RMK AO2 SLP143 CB DSNT E-SE & NW T03000200 10339 20300 56001
Pressure 29.96 in
Visibility 10.0 miles
Clouds Few 4500 ft
Scattered Clouds 10000 ft
Scattered Clouds 15000 ft
Mostly Cloudy 25000 ft
Heat Index 89 °F
Dew Point 71 °F
Humidity 66%
Rainfall 0.00 in
Snow Depth Not available.
6:47 AM 8:39 PM
Waning Crescent, 18% visible
METAR KATL 292352Z 29011KT 10SM FEW045 SCT100 SCT150 BKN250 30/20 A2999 RMK AO2 SLP143 CB DSNT E-SE & NW T03000200 10339 20300 56001

10-Day Weather Forecast

Almanac

Astronomy

Jul. 29, 2016 Rise Set
Actual Time
Civil Twilight
Nautical Twilight
Astronomical Twilight
Moon
Length of Visible Light
Length of Day
Tomorrow will be .
, % of the Moon is Illuminated

Today's Extremes

State Highs State Lows

Community

WunderPhotos

Upload Photos

1,928,452 photos uploaded!

WunderBlog® & News

Nearby

Air Quality

  Air Quality AQ Index Pollutant
Not available.

Snow Depth

Station Depth Elevation

Earthquake Activity

City Distance Mag. Time & Date
Minimum magnitude displayed is 2.5.

Coastal Water Temperatures

Place Temperature

Stations

Nearby Weather Stations

Station Location Temp. Windchill Dew Point Humidity Wind Precip. Elev Updated Type
                   

Watches & Warnings

There are currently no watches in effect.